createdAt,value
2019-02-03T01:46:41.258Z,73.52
2019-02-03T02:13:24.502Z,82.47
2019-02-03T02:16:02.868Z,85.30
2019-02-03T02:22:49.724Z,92.57
2019-02-03T02:28:59.335Z,86.85
2019-02-03T02:31:47.897Z,99.60
2019-02-03T02:42:59.105Z,83.80
2019-02-03T03:03:50.254Z,105.03
2019-02-03T03:10:56.555Z,98.07
2019-02-03T03:13:41.329Z,97.92
2019-02-03T03:16:41.624Z,96.15
2019-02-03T03:19:31.939Z,102.38
2019-02-03T03:22:08.400Z,97.60
2019-02-03T03:25:07.361Z,83.25
2019-02-03T03:28:03.252Z,102.22
2019-02-03T03:34:37.763Z,88.85
2019-02-03T03:37:15.523Z,91.02
2019-02-03T03:40:55.674Z,79.30
2019-02-03T03:58:26.491Z,75.70
2019-02-03T04:01:08.074Z,79.92
2019-02-03T04:11:04.590Z,64.62
2019-02-03T04:17:27.466Z,71.60
2019-02-03T04:20:23.728Z,62.43
2019-02-03T04:23:24.684Z,59.95
2019-02-03T04:27:21.807Z,58.87
2019-02-03T04:30:09.487Z,51.65
2019-02-03T04:48:37.632Z,51.83
2019-02-03T04:54:45.655Z,49.03
2019-02-03T04:58:24.288Z,48.23
2019-02-03T05:01:45.807Z,50.75
2019-02-03T05:04:43.700Z,44.93
2019-02-03T05:07:20.504Z,50.03
2019-02-03T05:10:11.412Z,46.23
2019-02-03T05:12:50.160Z,45.73
2019-02-03T05:16:01.382Z,47.27
2019-02-03T05:19:00.332Z,49.00
2019-02-03T05:21:58.384Z,45.67
2019-02-03T05:24:37.260Z,51.30
2019-02-03T05:27:40.634Z,45.80
2019-02-03T05:30:29.459Z,54.67
2019-02-03T05:33:02.013Z,45.00
2019-02-03T05:35:48.158Z,45.33
2019-02-03T05:38:21.188Z,52.95
2019-02-03T05:41:06.082Z,46.75
2019-02-03T05:43:47.783Z,44.60
2019-02-03T05:46:31.825Z,44.53
2019-02-03T05:49:17.047Z,51.90
2019-02-03T05:51:49.549Z,52.20
2019-02-03T05:54:32.125Z,52.70
2019-02-03T05:57:15.236Z,60.67
2019-02-03T05:59:49.786Z,53.05
2019-02-03T06:02:28.041Z,55.78
2019-02-03T06:05:01.448Z,55.23
2019-02-03T06:07:35.870Z,47.73
2019-02-03T06:10:14.787Z,48.15
2019-02-03T06:12:53.621Z,49.35
2019-02-03T06:15:32.831Z,50.48
2019-02-03T06:18:07.519Z,49.05
2019-02-03T06:20:38.100Z,43.17
2019-02-03T06:23:31.936Z,42.15
2019-02-03T06:29:29.333Z,46.98
2019-02-03T06:32:03.572Z,49.80
2019-02-03T06:34:42.523Z,45.03
2019-02-03T06:37:23.113Z,42.83
2019-02-03T06:40:04.938Z,39.48
2019-02-03T06:42:52.250Z,41.98
2019-02-03T06:45:31.663Z,48.48
2019-02-03T06:48:02.571Z,42.95
2019-02-03T06:50:39.092Z,44.80
2019-02-03T06:53:20.713Z,50.50
2019-02-03T06:56:40.813Z,48.25
2019-02-03T07:03:04.125Z,38.78
2019-02-03T07:05:33.570Z,42.55
2019-02-03T07:08:27.629Z,36.88
2019-02-03T07:11:08.656Z,43.65
2019-02-03T07:13:42.532Z,35.05
2019-02-03T07:16:40.580Z,42.90
2019-02-03T07:19:45.328Z,39.80
2019-02-03T07:22:11.543Z,33.28
2019-02-03T07:25:05.587Z,35.13
2019-02-03T07:27:48.427Z,33.75
2019-02-03T07:30:24.591Z,38.58
2019-02-03T07:33:19.176Z,36.35
2019-02-03T07:36:38.939Z,37.85
2019-02-03T07:39:43.641Z,30.95
2019-02-03T07:42:38.906Z,39.15
2019-02-03T08:16:44.330Z,34.40
2019-02-03T08:19:53.626Z,32.23
2019-02-03T08:22:26.588Z,29.98
2019-02-03T08:25:00.430Z,23.45
2019-02-03T08:27:46.213Z,30.52
2019-02-03T08:30:22.971Z,24.15
2019-02-03T08:33:09.604Z,19.90
2019-02-03T08:36:01.078Z,23.27
2019-02-03T08:38:30.633Z,20.82
2019-02-03T08:41:09.427Z,17.52
2019-02-03T08:43:43.201Z,22.70
2019-02-03T08:49:07.955Z,15.35
2019-02-03T08:51:40.463Z,23.20
2019-02-03T08:54:21.062Z,15.60
2019-02-03T08:56:50.546Z,13.45
2019-02-03T08:59:22.250Z,15.03
2019-02-03T09:01:51.900Z,13.20
2019-02-03T09:04:28.275Z,13.43
2019-02-03T09:07:00.626Z,16.73
2019-02-03T09:09:30.003Z,10.95
2019-02-03T09:12:00.448Z,14.18
2019-02-03T09:14:29.739Z,14.80
2019-02-03T09:16:59.303Z,13.68
2019-02-03T09:19:31.086Z,16.27
2019-02-03T09:22:02.271Z,17.27
2019-02-03T09:24:34.865Z,10.20
2019-02-03T09:27:04.457Z,12.30
2019-02-03T09:29:35.139Z,12.97
2019-02-03T09:32:04.970Z,14.80
2019-02-03T09:34:35.554Z,11.30
2019-02-03T09:37:05.135Z,9.20
2019-02-03T09:39:35.401Z,13.43
2019-02-03T09:42:08.630Z,12.40
2019-02-03T09:44:37.672Z,14.43
2019-02-03T09:47:16.393Z,10.77
2019-02-03T09:49:48.009Z,10.73
2019-02-03T09:52:20.328Z,12.07
2019-02-03T09:55:55.568Z,8.90
2019-02-03T09:58:33.467Z,8.60
2019-02-03T10:01:17.865Z,9.70
2019-02-03T10:04:30.015Z,7.93
2019-02-03T10:08:15.923Z,9.13
2019-02-03T10:14:30.776Z,10.03
2019-02-03T10:24:01.613Z,10.80
2019-02-03T10:26:49.940Z,7.83
2019-02-03T10:36:15.488Z,6.57
2019-02-03T10:46:44.419Z,15.33
2019-02-03T10:50:28.503Z,10.90
2019-02-03T10:52:58.826Z,5.00
2019-02-03T10:55:37.319Z,5.50
2019-02-03T10:58:13.098Z,13.90
2019-02-03T11:00:45.239Z,8.10
2019-02-03T11:03:14.700Z,11.00
2019-02-03T11:05:47.699Z,8.73
2019-02-03T11:08:17.020Z,9.27
2019-02-03T11:10:49.002Z,7.17
2019-02-03T11:13:18.354Z,7.57
2019-02-03T11:15:49.565Z,7.57
2019-02-03T11:18:21.696Z,6.90
2019-02-03T11:20:51.042Z,6.40
2019-02-03T11:23:20.618Z,6.10
2019-02-03T11:25:49.932Z,5.20
2019-02-03T11:28:19.206Z,6.70
2019-02-03T11:30:49.540Z,6.33
2019-02-03T11:33:19.142Z,6.57
2019-02-03T11:35:48.457Z,8.03
2019-02-03T11:38:18.145Z,6.47
2019-02-03T11:40:51.041Z,6.33
2019-02-03T11:43:20.531Z,10.13
2019-02-03T11:45:50.052Z,5.40
2019-02-03T11:48:21.455Z,6.60
2019-02-03T11:50:52.207Z,6.23
2019-02-03T11:53:29.078Z,4.37
2019-02-03T11:55:58.938Z,5.70
2019-02-03T11:58:28.655Z,5.20
2019-02-03T12:00:58.663Z,5.80
2019-02-03T12:03:28.231Z,7.20
2019-02-03T12:05:57.667Z,6.90
2019-02-03T12:08:26.984Z,9.77
2019-02-03T12:10:56.299Z,5.70
2019-02-03T12:13:25.558Z,10.30
2019-02-03T12:15:54.927Z,5.27
2019-02-03T12:18:25.077Z,4.97
2019-02-03T12:20:54.527Z,7.83
2019-02-03T12:23:23.847Z,4.27
2019-02-03T12:25:54.159Z,5.53
2019-02-03T12:28:23.595Z,5.67
2019-02-03T12:30:54.103Z,5.43
2019-02-03T12:33:23.483Z,5.80
2019-02-03T12:35:53.142Z,4.67
2019-02-03T12:38:22.848Z,4.80
2019-02-03T12:40:55.831Z,6.03
2019-02-03T12:43:25.360Z,6.03
2019-02-03T12:45:54.700Z,8.80
2019-02-03T12:48:24.221Z,7.03
2019-02-03T12:50:54.151Z,5.63
2019-02-03T12:53:23.755Z,5.60
2019-02-03T12:55:55.246Z,4.63
2019-02-03T12:58:24.733Z,5.43
2019-02-03T13:00:56.471Z,6.03
2019-02-03T13:03:26.970Z,7.27
2019-02-03T13:05:57.084Z,7.00
2019-02-03T13:08:29.022Z,7.80
2019-02-03T13:10:58.341Z,9.93
2019-02-03T13:13:27.751Z,9.97
2019-02-03T13:15:58.415Z,7.10
2019-02-03T13:18:28.099Z,5.17
2019-02-03T13:20:57.675Z,6.67
2019-02-03T13:23:27.139Z,6.97
2019-02-03T13:25:56.510Z,9.95
2019-02-03T13:28:25.900Z,9.05
2019-02-03T13:30:56.171Z,9.70
2019-02-03T13:33:25.635Z,8.58
2019-02-03T13:35:57.251Z,9.45
2019-02-03T13:38:26.530Z,12.23
2019-02-03T13:40:55.915Z,8.83
2019-02-03T13:43:25.573Z,8.08
2019-02-03T13:45:55.062Z,7.60
2019-02-03T13:48:24.776Z,7.87
2019-02-03T13:50:54.846Z,8.30
2019-02-03T13:53:24.402Z,9.53
2019-02-03T13:55:54.500Z,6.80
2019-02-03T13:58:36.044Z,5.83
2019-02-03T14:00:54.847Z,6.23
2019-02-03T14:03:24.206Z,6.20
2019-02-03T14:05:53.871Z,8.70
2019-02-03T14:08:23.550Z,6.77
2019-02-03T14:10:52.896Z,6.63
2019-02-03T14:13:22.591Z,12.47
2019-02-03T14:15:52.123Z,8.07
2019-02-03T14:18:21.519Z,8.73
2019-02-03T14:20:50.864Z,9.60
2019-02-03T14:23:20.228Z,9.90
2019-02-03T14:25:49.975Z,10.80
2019-02-03T14:28:20.023Z,7.65
2019-02-03T14:30:51.283Z,7.50
2019-02-03T14:33:20.601Z,7.60
2019-02-03T14:35:50.040Z,6.30
2019-02-03T14:38:19.482Z,6.40
2019-02-03T14:40:53.514Z,9.98
2019-02-03T14:43:22.857Z,8.70
2019-02-03T14:45:52.186Z,8.23
2019-02-03T14:48:22.206Z,8.23
2019-02-03T14:50:51.563Z,7.67
2019-02-03T14:53:21.045Z,6.00
2019-02-03T14:55:51.916Z,7.47
2019-02-03T14:58:21.668Z,5.55
2019-02-03T15:00:52.962Z,6.47
2019-02-03T15:03:26.766Z,7.75
2019-02-03T15:05:56.269Z,6.90
2019-02-03T15:08:26.923Z,7.50
2019-02-03T15:10:56.507Z,5.75
2019-02-03T15:13:26.143Z,6.70
2019-02-03T15:15:55.438Z,4.30
2019-02-03T15:18:24.927Z,7.15
2019-02-03T15:20:54.219Z,7.33
2019-02-03T15:23:23.887Z,5.72
2019-02-03T15:25:53.308Z,6.97
2019-02-03T15:28:22.766Z,3.95
2019-02-03T15:30:52.382Z,5.00
2019-02-03T15:33:26.293Z,7.20
2019-02-03T15:35:55.821Z,4.65
2019-02-03T15:38:25.446Z,3.85
2019-02-03T15:40:54.830Z,5.87
2019-02-03T15:43:25.821Z,3.45
2019-02-03T15:45:55.535Z,6.17
2019-02-03T15:48:24.835Z,7.33
2019-02-03T15:50:54.391Z,7.78
2019-02-03T15:53:24.906Z,8.18
2019-02-03T15:55:56.647Z,6.33
2019-02-03T15:58:29.877Z,7.50
2019-02-03T16:01:00.410Z,5.53
2019-02-03T16:03:33.287Z,6.58
2019-02-03T16:06:08.184Z,9.73
2019-02-03T16:08:48.102Z,6.58
2019-02-03T16:11:22.745Z,8.65
2019-02-03T16:13:56.458Z,10.90
2019-02-03T16:16:25.964Z,8.90
2019-02-03T16:18:55.901Z,8.65
2019-02-03T16:21:26.573Z,13.68
2019-02-03T16:23:57.152Z,9.25
2019-02-03T16:26:27.717Z,9.43
2019-02-03T16:28:57.606Z,6.62
2019-02-03T16:31:27.062Z,7.87
2019-02-03T16:33:56.518Z,6.25
2019-02-03T16:36:26.154Z,8.13
2019-02-03T16:38:55.900Z,9.58
2019-02-03T16:41:25.404Z,9.03
2019-02-03T16:43:54.789Z,5.55
2019-02-03T16:46:24.478Z,9.13
2019-02-03T16:48:53.960Z,5.30
2019-02-03T16:51:23.204Z,5.45
2019-02-03T16:53:52.934Z,6.42
2019-02-03T16:56:22.664Z,6.37
2019-02-03T16:58:52.067Z,8.88
2019-02-03T17:01:21.434Z,11.45
2019-02-03T17:03:51.023Z,8.63
2019-02-03T17:06:20.395Z,7.95
2019-02-03T17:08:50.396Z,6.60
2019-02-03T17:11:19.749Z,9.95
2019-02-03T17:14:00.261Z,9.85
2019-02-03T17:16:22.267Z,11.45
2019-02-03T17:18:51.649Z,6.60
2019-02-03T17:21:20.938Z,6.70
2019-02-03T17:23:50.752Z,5.50
2019-02-03T17:26:20.134Z,15.95
2019-02-03T17:28:49.696Z,10.88
2019-02-03T17:31:19.179Z,10.60
2019-02-03T17:33:48.444Z,8.15
2019-02-03T17:36:17.833Z,9.63
2019-02-03T17:38:53.962Z,9.83
2019-02-03T17:41:24.422Z,11.57
2019-02-03T17:43:54.730Z,9.60
2019-02-03T17:46:27.817Z,7.87
2019-02-03T17:48:57.166Z,10.50
2019-02-03T17:51:26.891Z,7.62
2019-02-03T17:53:56.241Z,11.05
2019-02-03T17:56:25.578Z,11.33
2019-02-03T17:58:56.063Z,9.15
2019-02-03T18:01:25.594Z,7.20
2019-02-03T18:03:54.940Z,12.78
2019-02-03T18:06:27.920Z,8.90
2019-02-03T18:08:57.258Z,9.28
2019-02-03T18:11:27.018Z,11.30
2019-02-03T18:13:57.469Z,7.40
2019-02-03T18:16:26.899Z,12.15
2019-02-03T18:18:56.465Z,9.68
2019-02-03T18:21:25.916Z,15.68
2019-02-03T18:23:55.218Z,9.65
2019-02-03T18:26:24.692Z,13.25
2019-02-03T18:28:54.066Z,11.03
2019-02-03T18:31:23.380Z,9.33
2019-02-03T18:33:52.711Z,10.40
2019-02-03T18:36:23.039Z,10.48
2019-02-03T18:38:52.565Z,12.13
2019-02-03T18:41:21.990Z,11.38
2019-02-03T18:43:51.366Z,10.45
2019-02-03T18:46:20.704Z,10.38
2019-02-03T18:48:51.219Z,10.10
2019-02-03T18:51:20.781Z,11.12
2019-02-03T18:53:50.295Z,8.60
2019-02-03T18:56:19.942Z,11.33
2019-02-03T18:58:49.340Z,11.00
2019-02-03T19:01:18.670Z,14.28
2019-02-03T19:03:47.962Z,6.05
2019-02-03T19:06:17.752Z,16.40
2019-02-03T19:08:47.130Z,12.73
2019-02-03T19:11:17.507Z,10.45
2019-02-03T19:13:46.793Z,15.53
2019-02-03T19:16:16.227Z,9.83
2019-02-03T19:18:45.678Z,18.10
2019-02-03T19:21:15.235Z,6.05
2019-02-03T19:23:44.763Z,16.80
2019-02-03T19:26:14.278Z,11.22
2019-02-03T19:28:43.761Z,9.43
2019-02-03T19:31:13.243Z,22.67
2019-02-03T19:33:42.695Z,15.60
2019-02-03T19:36:12.296Z,14.60
2019-02-03T19:38:41.654Z,11.50
2019-02-03T19:41:11.028Z,14.05
2019-02-03T19:43:50.235Z,12.20
2019-02-03T19:46:27.184Z,10.28
2019-02-03T19:49:30.589Z,15.23
2019-02-03T19:52:02.215Z,13.93
2019-02-03T19:54:43.047Z,14.43
2019-02-03T19:57:15.925Z,15.58
2019-02-03T19:59:49.284Z,13.20
2019-02-03T20:02:26.502Z,16.35
2019-02-03T20:05:01.276Z,18.82
2019-02-03T20:07:37.288Z,11.80
2019-02-03T20:10:59.106Z,15.75
2019-02-03T20:13:49.453Z,12.65
2019-02-03T20:16:51.095Z,17.55
2019-02-03T20:19:27.879Z,15.70
2019-02-03T20:22:23.872Z,22.30
2019-02-03T20:24:58.716Z,19.00
2019-02-03T20:27:32.964Z,17.20
2019-02-03T20:30:11.916Z,12.15
2019-02-03T20:33:07.600Z,17.40
2019-02-03T20:35:47.799Z,17.55
2019-02-03T20:38:37.078Z,18.60
2019-02-03T20:41:20.295Z,17.92
2019-02-03T20:47:22.189Z,16.85
2019-02-03T20:50:06.390Z,20.08
2019-02-03T20:52:44.455Z,18.32
2019-02-03T20:55:17.724Z,13.13
2019-02-03T20:58:26.344Z,13.05
2019-02-03T21:00:58.290Z,11.63
2019-02-03T21:03:44.778Z,14.05
2019-02-03T21:06:20.575Z,17.60
2019-02-03T21:09:24.471Z,13.28
2019-02-03T21:12:09.612Z,19.82
2019-02-03T21:15:32.582Z,17.35
2019-02-03T21:17:55.985Z,20.30
2019-02-03T21:20:32.279Z,15.88
2019-02-03T21:23:05.873Z,17.87
2019-02-03T21:25:53.465Z,19.35
2019-02-03T21:28:32.408Z,21.65
2019-02-03T21:31:24.025Z,17.75
2019-02-03T21:33:57.983Z,16.00
2019-02-03T21:36:51.504Z,16.10
2019-02-03T21:39:23.209Z,17.35
2019-02-03T21:44:55.210Z,14.03
2019-02-03T21:47:31.431Z,15.28
2019-02-03T21:50:05.160Z,17.12
2019-02-03T21:52:43.505Z,16.45
2019-02-03T21:55:22.687Z,16.32
2019-02-03T22:00:50.968Z,21.70
2019-02-03T22:03:26.617Z,11.83
2019-02-03T22:06:16.109Z,15.25
2019-02-03T22:08:51.200Z,12.15
2019-02-03T22:11:36.494Z,15.13
2019-02-03T22:14:18.018Z,12.03
2019-02-03T22:16:51.798Z,15.58
2019-02-03T22:19:29.681Z,17.95
2019-02-03T22:22:04.401Z,14.10
2019-02-03T22:24:36.717Z,14.05
2019-02-03T22:27:08.560Z,16.30
2019-02-03T22:29:42.079Z,16.27
2019-02-03T22:32:29.505Z,16.60
2019-02-03T22:35:14.462Z,16.50
2019-02-03T22:37:50.497Z,13.60
2019-02-03T22:40:23.190Z,18.52
2019-02-03T22:42:56.775Z,16.73
2019-02-03T22:45:29.502Z,14.73
2019-02-03T22:48:16.720Z,20.88
2019-02-03T22:50:52.389Z,17.70
2019-02-03T22:53:29.052Z,14.05
2019-02-03T22:56:04.648Z,19.12
2019-02-03T22:58:38.637Z,19.75
2019-02-03T23:01:37.795Z,20.95
2019-02-03T23:04:51.750Z,19.62
2019-02-03T23:07:45.016Z,18.92
2019-02-03T23:10:15.078Z,18.52
2019-02-03T23:12:51.575Z,14.68
2019-02-03T23:15:33.386Z,12.58
2019-02-03T23:18:03.720Z,13.15
2019-02-03T23:20:38.530Z,15.30
2019-02-03T23:23:12.923Z,14.93
2019-02-03T23:25:48.339Z,18.90
2019-02-03T23:28:39.295Z,14.23
2019-02-03T23:31:12.491Z,12.80
2019-02-03T23:33:45.242Z,19.55
2019-02-03T23:36:27.077Z,12.78
2019-02-03T23:38:56.726Z,13.22
2019-02-03T23:41:27.384Z,12.68
2019-02-03T23:43:56.909Z,13.28
2019-02-03T23:46:32.098Z,11.70
2019-02-03T23:49:07.487Z,19.20
2019-02-03T23:51:44.162Z,12.37
2019-02-03T23:54:13.683Z,10.32
2019-02-03T23:56:46.381Z,12.88
2019-02-03T23:59:19.461Z,15.45
